Pitt, Minnesota
Current Conditions -  °F | °C
As of 10:18 AM on Wednesday 28 Jan 2015 (Local Time) from KBDE Reporting Station
Haze Haze  
Wind Chill: 22°   Ceiling: 300
Heat Index: 29°   Visibility: 1.2mi
Dew Point: 28°   Wind: 7mph
Humidity: 96%   Direction: 130°SE
Pressure: 29.83"   Gusts: NA
Location:  48.5595°N, 94.661°W
Report Text: KBDE 281618Z AUTO 13006KT 1 1/4SM BR OVC003 M02/M02 A2983 RMK AO2 I1001 T10171022 TSNO
Loading
Personal Weather Stations






























Interactive Weather Map New forecast layout! Learn more

10-Day Weather Forecast

Advertisements
Track Severe Weather on mobile